TRC weather

Francisco Sarabia International Airport
Torreón, Coahuila, Mexico

Public forecast

Using degrees Celsius for public forecast. Weather courtesy of forecast.io.

Current aviation weather report (METAR) for Francisco Sarabia International Airport

Retrieved 2019/10/16 09:44 UTC (48 minutes ago):

MMTC 160944Z 00000KT 8SM SCT100 24/16 A3000 RMK 8/070 RTS

Aviation forecast (TAF) for Francisco Sarabia International Airport

Retrieved 2019/10/16 06:15 UTC (4 hours ago):

TAF TAF MMTC 160513Z 1606/1706 30005KT P6SM SCT020 SCT100 FM161800 34010KT P6SM SCT030 BKN100 TEMPO 1621/1701 5SM TSRA BKN020CB FM170300 03005KT P6SM SCT020 BKN100